TAF KBWG
KBWG 280538Z 2806/2906 24003KT P6SM SCT200 FM281100 32005KT P6SM BKN200 FM281800 32008KT P6SM FEW200 FM290000 33003KT P6SM SCT200=
METAR KBWG
WC KBWG
WS KBWG
WV KBWG